createdAt,value
2019-06-08T00:00:27.883Z,12.60
2019-06-08T00:02:57.588Z,10.28
2019-06-08T00:05:27.414Z,10.20
2019-06-08T00:07:57.111Z,10.93
2019-06-08T00:10:26.820Z,10.43
2019-06-08T00:12:56.447Z,13.45
2019-06-08T00:15:26.038Z,14.23
2019-06-08T00:17:55.643Z,13.60
2019-06-08T00:20:25.559Z,14.68
2019-06-08T00:22:55.167Z,14.43
2019-06-08T00:25:24.980Z,15.50
2019-06-08T00:27:54.695Z,15.50
2019-06-08T00:30:24.401Z,15.32
2019-06-08T00:32:54.012Z,13.93
2019-06-08T00:35:24.842Z,16.12
2019-06-08T00:37:54.658Z,14.98
2019-06-08T00:40:25.256Z,14.75
2019-06-08T00:42:55.002Z,16.07
2019-06-08T00:45:25.693Z,14.95
2019-06-08T00:47:55.446Z,15.88
2019-06-08T00:50:25.235Z,16.05
2019-06-08T00:52:54.969Z,14.23
2019-06-08T00:55:25.621Z,15.85
2019-06-08T00:57:55.723Z,16.02
2019-06-08T01:00:26.694Z,15.93
2019-06-08T01:02:56.683Z,14.75
2019-06-08T01:05:26.391Z,15.80
2019-06-08T01:07:56.101Z,15.75
2019-06-08T01:10:26.011Z,16.30
2019-06-08T01:12:55.625Z,18.48
2019-06-08T01:15:31.053Z,18.07
2019-06-08T01:18:02.783Z,17.73
2019-06-08T01:20:28.034Z,17.02
2019-06-08T01:22:57.743Z,15.65
2019-06-08T01:25:27.952Z,16.32
2019-06-08T01:27:57.775Z,16.02
2019-06-08T01:30:28.519Z,15.38
2019-06-08T01:32:58.219Z,15.28
2019-06-08T01:35:28.871Z,15.63
2019-06-08T01:37:59.161Z,15.90
2019-06-08T01:40:29.809Z,14.60
2019-06-08T01:42:59.518Z,15.48
2019-06-08T01:45:32.960Z,15.20
2019-06-08T01:48:18.586Z,15.33
2019-06-08T01:50:55.185Z,16.55
2019-06-08T01:53:24.882Z,16.15
2019-06-08T01:55:54.498Z,15.18
2019-06-08T01:58:25.273Z,14.00
2019-06-08T02:00:55.037Z,14.68
2019-06-08T02:03:24.644Z,15.00
2019-06-08T02:05:54.259Z,14.23
2019-06-08T02:08:24.434Z,14.20
2019-06-08T02:10:54.189Z,13.93
2019-06-08T02:13:24.942Z,14.18
2019-06-08T02:15:54.737Z,14.87
2019-06-08T02:18:37.330Z,14.65
2019-06-08T02:20:55.794Z,14.25
2019-06-08T02:23:25.400Z,14.33
2019-06-08T02:25:55.109Z,14.60
2019-06-08T02:28:24.718Z,14.45
2019-06-08T02:30:54.332Z,14.60
2019-06-08T02:33:23.936Z,15.25
2019-06-08T02:35:53.646Z,13.65
2019-06-08T02:38:23.361Z,14.00
2019-06-08T02:40:53.053Z,13.32
2019-06-08T02:43:22.777Z,14.07
2019-06-08T02:45:52.485Z,14.68
2019-06-08T02:48:22.096Z,14.18
2019-06-08T02:50:56.432Z,14.30
2019-06-08T02:53:29.407Z,13.88
2019-06-08T02:55:59.131Z,14.65
2019-06-08T02:58:31.043Z,16.42
2019-06-08T03:01:02.423Z,15.30
2019-06-08T03:03:35.787Z,14.60
2019-06-08T03:06:05.632Z,15.10
2019-06-08T03:08:41.165Z,15.50
2019-06-08T03:11:10.073Z,15.23
2019-06-08T03:13:42.473Z,14.68
2019-06-08T03:16:13.382Z,13.80
2019-06-08T03:18:43.094Z,14.87
2019-06-08T03:21:12.805Z,15.32
2019-06-08T03:23:43.502Z,15.55
2019-06-08T03:26:13.380Z,14.50
2019-06-08T03:28:44.372Z,14.63
2019-06-08T03:31:14.319Z,16.70
2019-06-08T03:33:53.403Z,16.27
2019-06-08T03:36:15.165Z,15.30
2019-06-08T03:38:44.913Z,14.98
2019-06-08T03:41:14.684Z,15.85
2019-06-08T03:43:44.297Z,15.20
2019-06-08T03:46:13.900Z,14.85
2019-06-08T03:48:45.826Z,15.15
2019-06-08T03:51:14.865Z,15.25
2019-06-08T03:53:46.925Z,16.05
2019-06-08T03:56:15.814Z,15.63
2019-06-08T03:58:47.802Z,15.28
2019-06-08T04:01:16.962Z,15.38
2019-06-08T04:03:46.686Z,15.75
2019-06-08T04:06:16.398Z,14.43
2019-06-08T04:08:47.513Z,15.88
2019-06-08T04:11:18.379Z,16.70
2019-06-08T04:13:47.986Z,17.15
2019-06-08T04:16:19.335Z,16.85
2019-06-08T04:18:50.247Z,17.65
2019-06-08T04:21:20.088Z,17.05
2019-06-08T04:23:50.637Z,17.70
2019-06-08T04:26:20.519Z,17.32
2019-06-08T04:28:51.085Z,17.10
2019-06-08T04:31:20.585Z,16.45
2019-06-08T04:33:50.909Z,17.17
2019-06-08T04:36:20.705Z,17.20
2019-06-08T04:38:50.398Z,17.70
2019-06-08T04:41:21.152Z,18.95
2019-06-08T04:43:50.758Z,17.95
2019-06-08T04:46:20.367Z,16.97
2019-06-08T04:48:50.282Z,16.02
2019-06-08T04:51:19.993Z,16.40
2019-06-08T04:53:49.865Z,16.32
2019-06-08T04:56:19.520Z,17.37
2019-06-08T04:58:51.277Z,17.45
2019-06-08T05:01:20.382Z,16.90
2019-06-08T05:03:50.221Z,17.17
2019-06-08T05:06:20.025Z,16.70
2019-06-08T05:08:49.966Z,16.65
2019-06-08T05:11:19.625Z,16.32
2019-06-08T05:13:49.757Z,16.93
2019-06-08T05:16:19.768Z,15.70
2019-06-08T05:18:49.816Z,16.17
2019-06-08T05:21:19.602Z,15.20
2019-06-08T05:23:58.001Z,14.58
2019-06-08T05:26:20.494Z,15.50
2019-06-08T05:28:50.252Z,14.33
2019-06-08T05:31:19.865Z,15.83
2019-06-08T05:33:49.822Z,14.38
2019-06-08T05:36:19.754Z,14.30
2019-06-08T05:38:49.849Z,14.30
2019-06-08T05:41:23.928Z,14.18
2019-06-08T05:43:51.998Z,14.05
2019-06-08T05:46:21.604Z,13.88
2019-06-08T05:48:51.219Z,15.23
2019-06-08T05:51:20.819Z,14.53
2019-06-08T05:53:50.428Z,15.50
2019-06-08T05:56:20.447Z,15.03
2019-06-08T05:58:50.453Z,13.62
2019-06-08T06:01:20.281Z,14.75
2019-06-08T06:03:51.790Z,15.70
2019-06-08T06:06:21.238Z,16.42
2019-06-08T06:08:51.118Z,15.93
2019-06-08T06:11:21.082Z,14.13
2019-06-08T06:13:51.583Z,14.90
2019-06-08T06:16:21.418Z,14.98
2019-06-08T06:18:52.167Z,15.48
2019-06-08T06:21:23.086Z,14.07
2019-06-08T06:23:52.693Z,13.88
2019-06-08T06:26:23.015Z,14.40
2019-06-08T06:28:52.717Z,11.35
2019-06-08T06:31:22.339Z,8.45
2019-06-08T06:33:52.455Z,11.33
2019-06-08T06:36:22.277Z,12.00
2019-06-08T06:38:52.324Z,11.35
2019-06-08T06:41:22.217Z,10.10
2019-06-08T06:43:52.235Z,11.30
2019-06-08T06:46:22.031Z,10.38
2019-06-08T06:48:52.573Z,10.32
2019-06-08T06:51:26.360Z,10.25
2019-06-08T06:53:53.922Z,9.98
2019-06-08T06:56:23.838Z,9.65
2019-06-08T06:58:53.726Z,9.28
2019-06-08T07:01:23.753Z,9.80
2019-06-08T07:03:54.362Z,10.20
2019-06-08T07:06:24.317Z,12.25
2019-06-08T07:08:54.624Z,12.18
2019-06-08T07:11:24.463Z,12.23
2019-06-08T07:13:55.295Z,14.03
2019-06-08T07:16:24.901Z,12.95
2019-06-08T07:18:54.644Z,14.75
2019-06-08T07:21:24.528Z,14.18
2019-06-08T07:23:56.030Z,15.72
2019-06-08T07:26:26.610Z,13.98
2019-06-08T07:28:56.524Z,14.28
2019-06-08T07:31:26.440Z,14.13
2019-06-08T07:33:56.353Z,14.28
2019-06-08T07:36:26.167Z,14.63
2019-06-08T07:38:55.882Z,12.73
2019-06-08T07:41:25.489Z,12.30
2019-06-08T07:43:56.415Z,14.50
2019-06-08T07:46:26.341Z,12.90
2019-06-08T07:48:56.540Z,13.20
2019-06-08T07:51:26.477Z,13.58
2019-06-08T07:53:56.086Z,12.78
2019-06-08T07:56:25.694Z,11.30
2019-06-08T07:58:55.527Z,12.75
2019-06-08T08:01:35.823Z,13.98
2019-06-08T08:03:58.331Z,14.70
2019-06-08T08:06:30.373Z,13.90
2019-06-08T08:08:59.470Z,11.95
2019-06-08T08:11:29.112Z,14.98
2019-06-08T08:13:59.208Z,15.20
2019-06-08T08:16:29.216Z,15.35
2019-06-08T08:18:59.721Z,13.83
2019-06-08T08:21:29.670Z,14.63
2019-06-08T08:24:03.159Z,14.87
2019-06-08T08:26:34.378Z,18.45
2019-06-08T08:29:05.447Z,12.60
2019-06-08T08:31:37.283Z,13.00
2019-06-08T08:34:08.877Z,16.07
2019-06-08T08:36:38.060Z,13.60
2019-06-08T08:39:08.757Z,12.82
2019-06-08T08:41:39.067Z,13.03
2019-06-08T08:44:09.032Z,13.68
2019-06-08T08:46:38.919Z,15.60
2019-06-08T08:49:12.301Z,15.65
2019-06-08T08:51:40.109Z,14.60
2019-06-08T08:54:09.718Z,17.87
2019-06-08T08:56:39.329Z,12.33
2019-06-08T08:59:10.857Z,15.70
2019-06-08T09:01:40.282Z,15.93
2019-06-08T09:04:09.992Z,17.60
2019-06-08T09:06:39.704Z,17.23
2019-06-08T09:09:09.414Z,16.30
2019-06-08T09:11:41.325Z,14.93
